Time;durP1;ratioP1;P1;durP2;ratioP2;P2;SDS_P1;SDS_P2;PMS_P1;PMS_P2;Temp;Humidity;BMP_temperature;BMP_pressure;BME280_temperature;BME280_humidity;BME280_pressure;Samples;Min_cycle;Max_cycle;Signal;HPM_P1;HPM_P2
2022/04/04 00:02:20;;;;;;;1.10;1.10;;;;;;;-1.44;75.29;96604.28;5098746;28;20199;-70
2022/04/04 00:04:48;;;;;;;1.07;0.87;;;;;;;-1.45;77.67;96602.59;5098703;28;20216;-71
2022/04/04 00:07:14;;;;;;;0.70;0.70;;;;;;;-1.55;76.02;96606.72;5098141;28;20673;-70
2022/04/04 00:09:41;;;;;;;1.20;1.17;;;;;;;-1.67;76.12;96602.28;5098978;28;20201;-71
2022/04/04 00:12:09;;;;;;;0.87;0.87;;;;;;;-1.50;76.77;96596.88;5098233;28;20212;-69
2022/04/04 00:14:36;;;;;;;0.80;0.80;;;;;;;-1.47;76.52;96599.31;5097758;28;20641;-72
2022/04/04 00:17:02;;;;;;;1.27;1.03;;;;;;;-1.78;76.65;96589.22;5098452;28;20218;-73
2022/04/04 00:19:29;;;;;;;1.80;1.13;;;;;;;-1.74;76.18;96588.09;5098528;28;20232;-71
2022/04/04 00:21:57;;;;;;;0.50;0.50;;;;;;;-1.63;76.20;96588.25;5098305;28;20206;-71
2022/04/04 00:24:24;;;;;;;1.17;1.10;;;;;;;-1.98;75.94;96597.34;5097694;28;20207;-71
2022/04/04 00:26:51;;;;;;;1.23;1.13;;;;;;;-1.85;76.28;96593.09;5097935;28;20225;-71
2022/04/04 00:29:18;;;;;;;1.10;1.10;;;;;;;-2.00;77.40;96588.84;5098494;28;20203;-69
2022/04/04 00:31:45;;;;;;;2.53;1.90;;;;;;;-2.30;80.72;96595.88;5097975;28;20253;-73
2022/04/04 00:34:11;;;;;;;3.90;2.67;;;;;;;-2.25;81.88;96586.13;5094153;28;20742;-70
2022/04/04 00:36:39;;;;;;;1.43;1.33;;;;;;;-2.01;79.07;96592.38;5098294;28;20215;-70
2022/04/04 00:39:07;;;;;;;1.27;1.17;;;;;;;-1.93;79.14;96584.19;5097371;28;20209;-70
2022/04/04 00:41:33;;;;;;;1.00;1.00;;;;;;;-1.88;77.84;96582.97;5098023;28;20294;-73
2022/04/04 00:43:59;;;;;;;1.93;1.37;;;;;;;-1.89;78.73;96581.31;5097472;28;20203;-70
2022/04/04 00:46:26;;;;;;;1.17;1.07;;;;;;;-1.77;77.76;96580.53;5097914;28;20237;-72
2022/04/04 00:48:53;;;;;;;2.03;1.77;;;;;;;-1.78;78.37;96584.06;5097874;28;20203;-70
2022/04/04 00:51:19;;;;;;;0.93;0.93;;;;;;;-1.92;77.42;96586.66;5098131;28;21013;-71
2022/04/04 00:53:46;;;;;;;0.60;0.60;;;;;;;-2.34;77.47;96589.25;5097421;28;20207;-71
2022/04/04 00:56:14;;;;;;;2.53;2.07;;;;;;;-2.22;78.52;96585.94;5097679;28;20224;-72
2022/04/04 00:58:41;;;;;;;1.87;1.20;;;;;;;-2.38;79.63;96581.78;5097866;28;20201;-71
2022/04/04 01:01:08;;;;;;;1.57;1.47;;;;;;;-2.38;80.51;96577.47;5097261;28;20235;-72
2022/04/04 01:03:34;;;;;;;0.93;0.93;;;;;;;-2.31;79.98;96578.72;5097289;28;20202;-73
2022/04/04 01:06:02;;;;;;;1.13;0.93;;;;;;;-2.42;80.86;96570.81;5097947;28;20232;-70
2022/04/04 01:08:28;;;;;;;0.50;0.50;;;;;;;-2.42;81.01;96569.97;5097457;28;20200;-72
2022/04/04 01:10:55;;;;;;;0.93;0.93;;;;;;;-2.34;80.62;96563.44;5097315;28;20205;-71
2022/04/04 01:13:23;;;;;;;2.10;1.17;;;;;;;-2.11;80.05;96557.72;5096826;28;20202;-69
2022/04/04 01:15:50;;;;;;;0.30;0.30;;;;;;;-2.14;78.50;96567.41;5097598;28;20236;-70
2022/04/04 01:18:16;;;;;;;0.60;0.60;;;;;;;-2.13;77.83;96567.28;5097373;28;20699;-71
2022/04/04 01:20:43;;;;;;;0.93;0.93;;;;;;;-2.27;78.61;96558.75;5097069;28;20222;-71
2022/04/04 01:23:12;;;;;;;2.00;1.23;;;;;;;-2.18;78.23;96551.25;5096746;28;21145;-71
2022/04/04 01:25:40;;;;;;;0.87;0.80;;;;;;;-1.96;76.81;96561.09;5097024;28;20557;-70
2022/04/04 01:28:07;;;;;;;1.17;1.17;;;;;;;-2.13;76.02;96551.81;5097448;28;20227;-71
2022/04/04 01:30:34;;;;;;;0.80;0.80;;;;;;;-2.27;76.67;96553.59;5096923;28;20202;-72
2022/04/04 01:33:00;;;;;;;0.67;0.67;;;;;;;-2.54;78.12;96555.25;5096234;28;20216;-71
2022/04/04 01:35:27;;;;;;;0.90;0.90;;;;;;;-2.79;79.94;96549.88;5094414;28;20414;-69
2022/04/04 01:37:54;;;;;;;0.93;0.90;;;;;;;-2.53;78.49;96540.59;5097331;28;20563;-70
2022/04/04 01:40:20;;;;;;;0.50;0.50;;;;;;;-2.44;79.03;96545.19;5096832;28;20274;-70
2022/04/04 01:42:51;;;;;;;0.57;0.57;;;;;;;-2.21;78.51;96542.91;5096275;28;20205;-70
2022/04/04 01:45:17;;;;;;;0.57;0.57;;;;;;;-2.33;78.63;96548.78;5097031;28;20198;-70
2022/04/04 01:47:45;;;;;;;0.70;0.70;;;;;;;-2.28;75.55;96547.59;5096998;28;20200;-71
2022/04/04 01:50:12;;;;;;;0.40;0.40;;;;;;;-2.46;76.34;96547.03;5096294;28;20931;-70
2022/04/04 01:52:39;;;;;;;0.80;0.80;;;;;;;-2.37;74.82;96548.16;5096378;28;20212;-70
2022/04/04 01:55:06;;;;;;;0.90;0.90;;;;;;;-2.28;77.28;96549.34;5096846;28;20220;-71
2022/04/04 01:57:34;;;;;;;1.27;1.17;;;;;;;-2.52;79.24;96555.16;5096441;28;20202;-70
2022/04/04 02:00:04;;;;;;;0.60;0.60;;;;;;;-2.17;78.00;96550.34;5096132;28;20299;-73
2022/04/04 02:02:30;;;;;;;0.57;0.57;;;;;;;-2.37;76.42;96550.75;5096253;28;21287;-70
2022/04/04 02:04:57;;;;;;;0.73;0.73;;;;;;;-2.46;75.87;96550.44;5096608;28;20267;-70
2022/04/04 02:07:24;;;;;;;1.10;1.07;;;;;;;-2.51;76.05;96541.34;5096397;28;21118;-72
2022/04/04 02:09:53;;;;;;;0.50;0.50;;;;;;;-2.60;77.66;96549.63;5096791;28;20211;-71
2022/04/04 02:12:19;;;;;;;1.57;1.47;;;;;;;-2.54;78.49;96541.53;5096371;28;20208;-70
2022/04/04 02:14:46;;;;;;;1.17;1.17;;;;;;;-2.60;79.17;96544.47;5096449;28;20200;-68
2022/04/04 02:17:14;;;;;;;0.97;0.97;;;;;;;-2.29;78.94;96539.94;5096813;28;20249;-71
2022/04/04 02:19:40;;;;;;;0.93;0.93;;;;;;;-2.44;77.17;96534.88;5096432;28;20726;-72
2022/04/04 02:22:07;;;;;;;0.50;0.50;;;;;;;-2.58;77.77;96542.59;5096446;28;20224;-70
2022/04/04 02:24:34;;;;;;;1.50;1.07;;;;;;;-2.49;78.82;96536.94;5096673;28;20209;-69
2022/04/04 02:27:00;;;;;;;0.40;0.40;;;;;;;-2.43;78.36;96534.81;5097233;28;20223;-69
2022/04/04 02:29:26;;;;;;;0.80;0.80;;;;;;;-2.51;77.56;96533.59;5096585;28;20202;-69
2022/04/04 02:31:53;;;;;;;0.47;0.47;;;;;;;-2.69;78.00;96529.53;5095832;28;20674;-70
2022/04/04 02:34:21;;;;;;;1.37;1.27;;;;;;;-2.63;78.36;96529.19;5094009;28;20205;-70
2022/04/04 02:36:47;;;;;;;0.73;0.73;;;;;;;-2.70;77.95;96525.28;5096515;28;20222;-68
2022/04/04 02:39:14;;;;;;;0.60;0.60;;;;;;;-2.64;75.98;96527.50;5096301;28;20202;-69
2022/04/04 02:41:40;;;;;;;0.40;0.40;;;;;;;-2.73;78.00;96530.63;5096702;28;20222;-69
2022/04/04 02:44:07;;;;;;;0.53;0.53;;;;;;;-2.72;78.10;96527.97;5092646;28;20689;-71
2022/04/04 02:46:35;;;;;;;0.63;0.63;;;;;;;-2.88;79.07;96522.06;5096025;28;20222;-69
2022/04/04 02:49:01;;;;;;;0.93;0.93;;;;;;;-2.88;79.39;96524.66;5096491;28;20204;-69
2022/04/04 02:51:29;;;;;;;1.00;1.00;;;;;;;-2.59;75.69;96517.75;5096682;28;20204;-69
2022/04/04 02:53:56;;;;;;;0.80;0.80;;;;;;;-2.70;75.52;96512.41;5095461;28;20677;-68
2022/04/04 02:56:30;;;;;;;0.77;0.77;;;;;;;-2.75;76.07;96510.09;5096583;28;20225;-70
2022/04/04 02:58:58;;;;;;;1.03;1.03;;;;;;;-2.82;77.68;96513.13;5096333;28;20217;-69
2022/04/04 03:01:25;;;;;;;1.67;1.13;;;;;;;-3.10;77.63;96518.25;5096307;28;20225;-69
2022/04/04 03:03:51;;;;;;;0.70;0.70;;;;;;;-2.93;77.30;96520.66;5099314;28;20209;-70
2022/04/04 03:06:18;;;;;;;0.53;0.53;;;;;;;-2.95;76.79;96510.44;5100261;28;20222;-71
2022/04/04 03:08:46;;;;;;;0.40;0.40;;;;;;;-2.78;76.29;96509.44;5099390;28;20689;-69
2022/04/04 03:11:13;;;;;;;0.43;0.43;;;;;;;-2.86;74.81;96512.47;5099972;28;20567;-69
2022/04/04 03:13:40;;;;;;;0.70;0.70;;;;;;;-3.11;77.00;96501.13;5099246;28;20214;-68
2022/04/04 03:16:06;;;;;;;0.60;0.60;;;;;;;-3.17;78.32;96506.66;5099503;28;20319;-72
2022/04/04 03:18:35;;;;;;;0.40;0.40;;;;;;;-3.07;79.00;96502.59;5099745;28;20596;-68
2022/04/04 03:21:03;;;;;;;0.90;0.83;;;;;;;-2.95;78.27;96507.84;5099704;28;20223;-69
2022/04/04 03:23:30;;;;;;;0.70;0.70;;;;;;;-3.00;76.91;96509.06;5098626;28;20205;-69
2022/04/04 03:25:58;;;;;;;1.13;1.03;;;;;;;-2.80;76.57;96509.53;5099141;28;20230;-70
2022/04/04 03:28:25;;;;;;;1.47;0.93;;;;;;;-3.07;77.12;96510.31;5100007;28;20198;-69
2022/04/04 03:30:52;;;;;;;0.70;0.70;;;;;;;-3.14;78.35;96510.75;5099579;28;20236;-70
2022/04/04 03:33:18;;;;;;;0.70;0.70;;;;;;;-3.24;79.14;96504.50;5096633;28;20938;-71
2022/04/04 03:35:45;;;;;;;0.60;0.60;;;;;;;-2.95;76.98;96509.63;5099531;28;20223;-68
2022/04/04 03:38:13;;;;;;;0.80;0.80;;;;;;;-3.04;76.89;96501.56;5100066;28;20208;-72
2022/04/04 03:40:40;;;;;;;0.60;0.60;;;;;;;-2.96;77.82;96502.81;5098855;28;20368;-68
2022/04/04 03:43:09;;;;;;;1.40;1.30;;;;;;;-2.83;77.72;96506.31;5098179;28;20205;-69
2022/04/04 03:45:35;;;;;;;1.20;1.07;;;;;;;-3.04;77.03;96502.44;5099157;28;20274;-69
2022/04/04 03:48:02;;;;;;;0.50;0.50;;;;;;;-3.03;77.00;96500.66;5099539;28;20205;-69
2022/04/04 03:50:30;;;;;;;0.60;0.60;;;;;;;-2.89;77.01;96507.50;5099200;28;20305;-68
2022/04/04 03:52:57;;;;;;;0.40;0.40;;;;;;;-3.08;77.39;96503.53;5098219;28;20672;-70
2022/04/04 03:55:26;;;;;;;0.67;0.67;;;;;;;-2.90;76.62;96511.00;5099252;28;20229;-71
2022/04/04 03:57:53;;;;;;;1.20;1.10;;;;;;;-2.86;74.94;96503.94;5098867;28;20662;-70
2022/04/04 04:00:23;;;;;;;0.30;0.30;;;;;;;-2.81;76.17;96505.31;5099073;28;20206;-68
2022/04/04 04:02:49;;;;;;;1.47;1.10;;;;;;;-3.03;76.66;96509.22;5098274;28;20221;-69
2022/04/04 04:05:16;;;;;;;0.50;0.50;;;;;;;-3.06;76.56;96495.72;5098288;28;20294;-69
2022/04/04 04:07:43;;;;;;;3.40;1.27;;;;;;;-2.94;76.16;96491.47;5099108;28;20205;-71
2022/04/04 04:10:11;;;;;;;0.70;0.70;;;;;;;-2.89;76.18;96496.34;5098902;28;20652;-69
2022/04/04 04:12:39;;;;;;;5.90;1.63;;;;;;;-2.86;75.45;96488.47;5097756;28;20198;-69
2022/04/04 04:15:08;;;;;;;0.70;0.70;;;;;;;-3.01;76.19;96497.09;5097357;28;20197;-69
2022/04/04 04:17:35;;;;;;;0.67;0.60;;;;;;;-2.86;76.36;96496.19;5098984;28;20196;-69
2022/04/04 04:20:20;;;;;;;2.43;1.57;;;;;;;-3.04;76.42;96492.13;5098303;28;20210;-68
2022/04/04 04:22:48;;;;;;;3.23;1.73;;;;;;;-3.05;78.19;96489.59;5097997;28;20204;-70
2022/04/04 04:29:36;;;;;;;1.53;1.30;;;;;;;-2.80;76.92;96486.34;5053765;27;20584;-71
2022/04/04 04:32:03;;;;;;;2.30;1.43;;;;;;;-2.89;76.73;96483.47;5053885;28;20204;-68
2022/04/04 04:34:29;;;;;;;0.90;0.90;;;;;;;-2.87;77.37;96484.22;5051038;28;20204;-70
2022/04/04 04:36:56;;;;;;;1.20;1.20;;;;;;;-2.69;76.50;96477.97;5053964;28;20240;-68
2022/04/04 04:39:23;;;;;;;3.53;1.37;;;;;;;-2.86;75.91;96480.72;5053628;28;20220;-70
2022/04/04 04:41:50;;;;;;;2.27;1.73;;;;;;;-2.79;74.53;96482.00;5053913;28;20260;-71
2022/04/04 04:44:17;;;;;;;1.50;1.23;;;;;;;-2.81;74.95;96483.84;5052995;28;20216;-69
2022/04/04 04:46:45;;;;;;;1.80;1.37;;;;;;;-2.77;77.48;96480.19;5052961;28;20229;-69
2022/04/04 04:49:11;;;;;;;2.30;1.00;;;;;;;-2.80;77.18;96475.19;5054177;28;20685;-70
2022/04/04 04:51:38;;;;;;;1.07;1.07;;;;;;;-2.70;75.49;96482.31;5053686;28;20210;-68
2022/04/04 04:54:04;;;;;;;1.60;1.50;;;;;;;-2.69;74.99;96488.28;5052674;28;20215;-69
2022/04/04 04:56:31;;;;;;;3.90;1.40;;;;;;;-2.77;75.96;96483.56;5053415;28;20308;-68
2022/04/04 04:58:58;;;;;;;1.17;1.13;;;;;;;-2.90;77.60;96495.53;5053114;28;20229;-70
2022/04/04 05:01:24;;;;;;;1.00;1.00;;;;;;;-2.78;78.79;96492.22;5053548;28;20212;-71
2022/04/04 05:03:52;;;;;;;1.63;1.53;;;;;;;-2.66;80.67;96490.66;5052617;28;20206;-69
2022/04/04 05:06:18;;;;;;;1.43;0.83;;;;;;;-2.80;79.95;96500.97;5052769;28;20592;-69
2022/04/04 05:08:45;;;;;;;1.27;1.17;;;;;;;-2.46;81.96;96500.63;5053138;28;20697;-71
2022/04/04 05:11:12;;;;;;;3.23;1.27;;;;;;;-2.43;78.61;96495.25;5053720;28;20213;-68
2022/04/04 05:13:38;;;;;;;1.77;1.60;;;;;;;-2.38;76.54;96501.78;5052721;28;20731;-72
2022/04/04 05:16:10;;;;;;;1.13;1.10;;;;;;;-2.27;77.52;96504.56;5053161;28;20227;-71
2022/04/04 05:18:36;;;;;;;0.87;0.87;;;;;;;-2.30;76.16;96502.16;5052777;28;20231;-70
2022/04/04 05:21:04;;;;;;;1.43;1.33;;;;;;;-2.25;76.12;96500.97;5052564;28;20839;-70
2022/04/04 05:23:31;;;;;;;1.47;1.20;;;;;;;-2.15;77.55;96503.78;5051894;28;20637;-70
2022/04/04 05:25:57;;;;;;;1.00;1.00;;;;;;;-2.24;78.69;96505.19;5052140;28;20282;-68
2022/04/04 05:28:24;;;;;;;1.13;1.13;;;;;;;-2.03;78.83;96503.88;5052867;28;20216;-69
2022/04/04 05:30:50;;;;;;;1.27;1.17;;;;;;;-1.93;78.79;96512.69;5052872;28;20232;-70
2022/04/04 05:33:17;;;;;;;1.33;1.23;;;;;;;-1.89;79.39;96508.19;5050618;28;20210;-71
2022/04/04 05:35:43;;;;;;;1.60;1.50;;;;;;;-1.86;79.61;96508.78;5052537;28;21060;-70
2022/04/04 05:38:13;;;;;;;0.70;0.70;;;;;;;-1.54;78.14;96510.16;5052436;28;20234;-71
2022/04/04 05:40:39;;;;;;;2.07;1.37;;;;;;;-1.72;79.26;96512.19;5040777;28;20209;-71
2022/04/04 05:43:07;;;;;;;0.83;0.83;;;;;;;-1.69;79.41;96511.16;5038714;28;20251;-71
2022/04/04 05:45:35;;;;;;;3.60;2.67;;;;;;;-1.49;77.51;96508.13;5039396;28;20236;-70
2022/04/04 05:48:02;;;;;;;2.23;1.40;;;;;;;-1.49;77.09;96505.53;5039182;28;20209;-71
2022/04/04 05:50:28;;;;;;;2.03;1.90;;;;;;;-1.30;77.46;96503.44;5038810;28;20872;-69
2022/04/04 05:52:55;;;;;;;2.57;2.37;;;;;;;-1.14;77.66;96500.56;5038612;28;20219;-69
2022/04/04 05:55:23;;;;;;;0.97;0.97;;;;;;;-1.12;77.80;96506.47;5039506;28;20224;-70
2022/04/04 05:57:49;;;;;;;2.10;1.43;;;;;;;-1.35;77.26;96511.50;5038793;28;20737;-69
2022/04/04 06:00:16;;;;;;;1.07;1.07;;;;;;;-1.03;77.80;96507.59;5038853;28;20708;-70
2022/04/04 06:02:45;;;;;;;2.43;1.83;;;;;;;-0.99;78.50;96504.72;5039064;28;20205;-69
2022/04/04 06:05:12;;;;;;;4.03;1.23;;;;;;;-0.82;79.60;96496.66;5038754;28;20208;-70
2022/04/04 06:07:40;;;;;;;1.90;1.27;;;;;;;-0.56;79.64;96487.97;5038968;28;20213;-69
2022/04/04 06:10:09;;;;;;;1.03;1.03;;;;;;;-0.65;80.99;96493.78;5039180;28;20370;-70
2022/04/04 06:12:37;;;;;;;1.77;1.67;;;;;;;-0.53;81.11;96488.59;5038681;28;20275;-69
2022/04/04 06:15:05;;;;;;;3.00;2.03;;;;;;;-0.31;79.89;96487.97;5039214;28;20209;-69
2022/04/04 06:17:31;;;;;;;2.10;1.37;;;;;;;-0.38;80.24;96492.72;5039236;28;21098;-70
2022/04/04 06:19:58;;;;;;;1.77;1.63;;;;;;;-0.62;81.64;96486.63;5039143;28;20225;-69
2022/04/04 06:22:25;;;;;;;2.97;1.87;;;;;;;-0.54;81.63;96491.28;5038666;28;20205;-69
2022/04/04 06:24:51;;;;;;;0.87;0.87;;;;;;;-0.41;80.73;96492.09;5038863;28;20294;-70
2022/04/04 06:27:18;;;;;;;2.00;1.67;;;;;;;-0.42;81.24;96493.03;5038884;28;20223;-70
2022/04/04 06:29:46;;;;;;;2.10;1.90;;;;;;;-0.19;81.49;96497.47;5038491;28;20223;-70
2022/04/04 06:32:12;;;;;;;1.80;1.70;;;;;;;-0.54;82.09;96496.47;5039428;28;20239;-69
2022/04/04 06:34:39;;;;;;;4.20;1.53;;;;;;;-0.38;82.19;96491.88;5035883;28;20215;-71
2022/04/04 06:37:05;;;;;;;1.60;1.33;;;;;;;-0.34;82.20;96493.38;5036574;28;20580;-70
2022/04/04 06:39:32;;;;;;;3.00;2.80;;;;;;;-0.35;82.18;96491.69;5038036;28;20798;-71
2022/04/04 06:41:59;;;;;;;5.93;2.53;;;;;;;-0.24;82.67;96486.59;5037870;28;20705;-70
2022/04/04 06:44:26;;;;;;;2.00;1.90;;;;;;;0.07;81.90;96487.75;5037598;28;20228;-70
2022/04/04 06:46:55;;;;;;;1.50;1.40;;;;;;;0.17;82.07;96485.38;5037919;28;20656;-71
2022/04/04 06:49:22;;;;;;;1.47;1.37;;;;;;;0.08;81.29;96486.81;5037884;28;20363;-70
2022/04/04 06:51:50;;;;;;;1.23;0.90;;;;;;;-0.14;82.46;96485.88;5036667;28;20580;-70
2022/04/04 06:54:18;;;;;;;2.60;2.07;;;;;;;0.14;82.44;96482.97;5036424;28;20642;-70
2022/04/04 06:56:45;;;;;;;0.93;0.93;;;;;;;0.09;82.41;96478.13;5037794;28;20240;-70
2022/04/04 06:59:12;;;;;;;1.37;1.07;;;;;;;0.29;82.18;96477.53;5037026;28;20220;-71
2022/04/04 07:01:38;;;;;;;2.77;1.83;;;;;;;0.52;81.66;96471.50;5037143;28;20213;-70
2022/04/04 07:04:06;;;;;;;2.80;1.57;;;;;;;0.79;80.87;96470.34;5036837;28;20201;-70
2022/04/04 07:06:32;;;;;;;2.80;1.83;;;;;;;0.82;80.13;96469.28;5037201;28;20236;-69
2022/04/04 07:08:59;;;;;;;2.03;1.80;;;;;;;0.46;80.43;96466.78;5037308;28;20208;-70
2022/04/04 07:11:26;;;;;;;2.73;2.53;;;;;;;0.65;80.21;96460.16;5038081;28;20670;-71
2022/04/04 07:13:53;;;;;;;1.03;0.90;;;;;;;0.82;79.46;96458.91;5036990;28;20213;-69
2022/04/04 07:16:19;;;;;;;0.77;0.77;;;;;;;0.88;79.99;96469.66;5037695;28;20231;-70
2022/04/04 07:18:47;;;;;;;3.83;2.47;;;;;;;1.39;78.88;96461.41;5037301;28;20232;-71
2022/04/04 07:21:15;;;;;;;3.67;1.50;;;;;;;1.70;78.22;96460.69;5037354;28;20213;-70
2022/04/04 07:23:42;;;;;;;0.83;0.83;;;;;;;1.61;77.42;96464.00;5036689;28;20732;-70
2022/04/04 07:26:08;;;;;;;3.00;1.83;;;;;;;1.61;76.69;96463.19;5037500;28;20251;-70
2022/04/04 07:28:35;;;;;;;2.67;2.43;;;;;;;1.48;76.57;96471.06;5037126;28;20228;-69
2022/04/04 07:31:06;;;;;;;9.10;3.37;;;;;;;1.62;76.63;96468.25;5037410;28;20202;-70
2022/04/04 07:33:32;;;;;;;1.77;1.67;;;;;;;1.51;76.14;96465.63;5034245;28;21026;-70
2022/04/04 07:35:59;;;;;;;5.50;2.20;;;;;;;1.81;75.01;96458.91;5036871;28;20229;-69
2022/04/04 07:38:26;;;;;;;2.27;1.43;;;;;;;2.19;73.97;96459.34;5036926;28;20581;-69
2022/04/04 07:40:53;;;;;;;0.90;0.90;;;;;;;1.86;72.79;96458.56;5038037;28;20665;-69
2022/04/04 07:43:19;;;;;;;3.83;0.90;;;;;;;1.66;73.95;96458.47;5037124;28;20662;-69
2022/04/04 07:45:46;;;;;;;4.30;1.73;;;;;;;2.05;74.33;96451.81;5036474;28;20221;-70
2022/04/04 07:48:12;;;;;;;3.57;2.33;;;;;;;2.32;72.43;96459.19;5037204;28;20205;-69
2022/04/04 07:50:41;;;;;;;4.77;3.23;;;;;;;2.32;71.71;96459.19;5037779;28;20262;-69
2022/04/04 07:53:08;;;;;;;2.73;1.40;;;;;;;2.11;71.62;96461.69;5036132;28;20211;-69
2022/04/04 07:55:36;;;;;;;2.00;1.80;;;;;;;2.54;71.22;96447.75;5036879;28;20254;-70
2022/04/04 07:58:03;;;;;;;2.30;1.97;;;;;;;2.51;70.76;96449.81;5036857;28;20240;-69
2022/04/04 08:00:30;;;;;;;0.63;0.63;;;;;;;2.61;70.53;96451.53;5036765;28;20310;-70
2022/04/04 08:02:56;;;;;;;1.00;0.90;;;;;;;2.70;69.38;96449.94;5035504;28;20201;-69
2022/04/04 08:05:23;;;;;;;2.57;1.77;;;;;;;2.76;69.59;96445.09;5036878;28;20221;-69
2022/04/04 08:07:52;;;;;;;3.27;1.73;;;;;;;2.67;69.53;96439.81;5036713;28;20268;-69
2022/04/04 08:10:18;;;;;;;1.50;1.40;;;;;;;2.65;67.49;96442.53;5037053;28;20205;-69
2022/04/04 08:12:46;;;;;;;8.87;2.23;;;;;;;3.25;67.93;96437.50;5035563;28;20216;-69
2022/04/04 08:15:13;;;;;;;4.43;2.70;;;;;;;3.11;67.71;96443.03;5036199;28;20291;-69
2022/04/04 08:17:40;;;;;;;1.30;1.20;;;;;;;2.62;67.02;96441.94;5036263;28;21056;-68
2022/04/04 08:20:08;;;;;;;1.43;1.33;;;;;;;2.93;67.55;96441.94;5036786;28;20341;-69
2022/04/04 08:22:39;;;;;;;1.70;1.60;;;;;;;3.53;65.38;96439.44;5036402;28;20215;-69
2022/04/04 08:25:07;;;;;;;0.70;0.70;;;;;;;3.27;64.76;96438.19;5036436;28;20303;-69
2022/04/04 08:27:35;;;;;;;1.83;1.03;;;;;;;3.23;63.45;96439.38;5036742;28;20248;-69
2022/04/04 08:30:04;;;;;;;2.43;2.00;;;;;;;3.70;63.93;96424.84;5036554;28;20216;-69
2022/04/04 08:32:31;;;;;;;2.07;1.50;;;;;;;3.52;63.18;96425.56;5035838;28;21145;-69
2022/04/04 08:34:58;;;;;;;2.63;1.23;;;;;;;3.51;61.84;96434.34;5033965;28;20208;-70
2022/04/04 08:37:24;;;;;;;2.70;1.53;;;;;;;3.94;61.44;96421.91;5036871;28;20282;-70
2022/04/04 08:39:50;;;;;;;2.00;1.33;;;;;;;3.76;59.73;96420.88;5036177;28;20228;-69
2022/04/04 08:42:21;;;;;;;0.73;0.73;;;;;;;3.46;59.52;96420.06;5035885;28;20205;-69
2022/04/04 08:44:49;;;;;;;2.43;1.93;;;;;;;3.56;62.04;96415.72;5036452;28;20205;-69
2022/04/04 08:47:18;;;;;;;2.03;1.83;;;;;;;4.04;62.42;96412.34;5036219;28;20808;-69
2022/04/04 08:49:45;;;;;;;3.93;2.43;;;;;;;3.81;60.14;96411.69;5036451;28;20293;-69
2022/04/04 08:52:11;;;;;;;0.90;0.90;;;;;;;3.71;61.35;96410.84;5036751;28;20205;-70
2022/04/04 08:54:38;;;;;;;0.70;0.70;;;;;;;3.82;57.71;96408.16;5035683;28;20213;-69
2022/04/04 08:57:04;;;;;;;1.30;1.20;;;;;;;3.46;58.23;96409.63;5035918;28;20228;-69
2022/04/04 08:59:31;;;;;;;1.73;1.63;;;;;;;3.79;58.79;96405.81;5036330;28;20228;-69
2022/04/04 09:01:57;;;;;;;1.20;1.13;;;;;;;3.97;55.85;96401.63;5036280;28;20576;-70
2022/04/04 09:04:25;;;;;;;3.60;1.77;;;;;;;4.12;58.87;96399.44;5035923;28;20220;-69
2022/04/04 09:06:53;;;;;;;0.73;0.73;;;;;;;4.02;55.87;96389.00;5036352;28;20231;-70
2022/04/04 09:09:21;;;;;;;1.00;0.77;;;;;;;4.25;54.35;96386.03;5035799;28;20201;-69
2022/04/04 09:11:52;;;;;;;2.30;1.20;;;;;;;4.06;52.71;96387.78;5034523;28;20213;-69
2022/04/04 09:14:22;;;;;;;1.73;1.37;;;;;;;4.13;54.45;96381.06;5034842;28;20557;-69
2022/04/04 09:16:55;;;;;;;1.33;0.90;;;;;;;4.65;54.79;96373.69;5038517;28;20255;-69
2022/04/04 09:19:29;;;;;;;3.67;1.97;;;;;;;4.30;54.44;96383.00;5038743;28;20274;-69
2022/04/04 09:21:57;;;;;;;1.70;1.33;;;;;;;4.19;53.12;96371.84;5039033;28;20227;-70
2022/04/04 09:24:43;;;;;;;2.80;1.20;;;;;;;4.93;54.29;96365.00;5038431;28;20306;-69
2022/04/04 09:27:11;;;;;;;0.80;0.80;;;;;;;4.74;54.23;96365.03;5038728;28;20598;-70
2022/04/04 09:29:42;;;;;;;3.40;1.80;;;;;;;5.28;55.47;96365.19;5039223;28;20229;-70
2022/04/04 09:32:11;;;;;;;2.37;1.67;;;;;;;4.77;51.93;96356.09;5039618;28;20204;-70
2022/04/04 09:34:53;;;;;;;5.57;2.60;;;;;;;4.99;52.44;96356.59;5035440;28;20308;-70
2022/04/04 09:37:21;;;;;;;3.80;2.57;;;;;;;4.71;52.95;96346.19;5038634;28;20303;-70
2022/04/04 09:39:48;;;;;;;1.70;1.30;;;;;;;4.77;53.47;96350.88;5039016;28;20228;-69
2022/04/04 09:42:16;;;;;;;8.50;1.53;;;;;;;4.94;52.84;96341.34;5038211;28;20215;-70
2022/04/04 09:44:42;;;;;;;2.43;1.47;;;;;;;4.63;54.09;96338.25;5038820;28;20282;-70
2022/04/04 09:47:09;;;;;;;3.00;1.47;;;;;;;4.93;54.85;96337.09;5038591;28;20225;-70
2022/04/04 09:49:39;;;;;;;3.27;2.03;;;;;;;5.01;52.93;96334.59;5038782;28;20197;-70
2022/04/04 09:52:07;;;;;;;5.53;1.40;;;;;;;5.29;53.59;96328.47;5039197;28;20205;-70
2022/04/04 09:54:33;;;;;;;1.77;1.67;;;;;;;5.15;53.59;96326.31;5039090;28;20209;-70
2022/04/04 09:57:10;;;;;;;4.60;1.33;;;;;;;5.23;51.62;96326.44;5038075;28;20330;-70
2022/04/04 09:59:38;;;;;;;2.67;1.73;;;;;;;5.36;53.05;96326.94;5037875;28;20224;-70
2022/04/04 10:02:05;;;;;;;1.40;1.30;;;;;;;5.09;53.96;96321.69;5039061;28;20205;-70
2022/04/04 10:04:32;;;;;;;3.57;1.83;;;;;;;5.22;52.62;96314.34;5038473;28;20201;-70
2022/04/04 10:07:03;;;;;;;3.13;2.10;;;;;;;5.16;53.75;96317.53;5038319;28;20228;-70
2022/04/04 10:09:31;;;;;;;1.80;1.37;;;;;;;5.29;53.24;96312.78;5038674;28;20205;-69
2022/04/04 10:11:58;;;;;;;3.53;1.60;;;;;;;5.36;52.84;96299.97;5037910;28;20209;-69
2022/04/04 10:14:25;;;;;;;4.53;2.57;;;;;;;5.19;53.56;96301.56;5037477;28;20209;-70
2022/04/04 10:16:52;;;;;;;2.23;1.20;;;;;;;5.36;52.79;96292.97;5039450;28;20224;-70
2022/04/04 10:19:21;;;;;;;2.73;2.27;;;;;;;5.97;53.11;96273.13;5039786;28;20367;-71
2022/04/04 10:21:47;;;;;;;2.17;1.63;;;;;;;5.22;51.58;96283.00;5038303;28;20670;-71
2022/04/04 10:24:15;;;;;;;1.00;0.93;;;;;;;5.64;51.22;96265.88;5035977;28;20204;-70
2022/04/04 10:26:47;;;;;;;1.13;0.97;;;;;;;5.73;51.59;96262.41;5038130;28;20257;-71
2022/04/04 10:29:16;;;;;;;4.10;1.37;;;;;;;5.64;52.47;96263.28;5037339;28;20212;-71
2022/04/04 10:31:44;;;;;;;1.37;1.27;;;;;;;6.26;52.98;96257.06;5038360;28;20512;-71
2022/04/04 10:34:13;;;;;;;1.80;1.10;;;;;;;5.88;51.14;96243.47;5033805;28;20209;-71
2022/04/04 10:36:54;;;;;;;3.20;1.90;;;;;;;6.43;50.62;96237.06;5036263;28;20653;-71
2022/04/04 10:39:32;;;;;;;2.23;1.10;;;;;;;6.24;49.64;96238.06;5037356;28;20261;-71
2022/04/04 10:42:00;;;;;;;2.10;1.50;;;;;;;6.36;51.07;96241.28;5038236;28;20204;-71
2022/04/04 10:44:47;;;;;;;3.70;2.13;;;;;;;6.77;50.20;96238.78;5037657;28;20209;-71
2022/04/04 10:47:20;;;;;;;1.50;1.17;;;;;;;6.48;50.83;96226.97;5037751;28;20263;-70
2022/04/04 10:49:47;;;;;;;2.00;1.53;;;;;;;6.58;50.35;96228.53;5038054;28;21078;-71
2022/04/04 10:52:14;;;;;;;2.60;1.83;;;;;;;6.17;50.99;96216.13;5035981;28;20201;-71
2022/04/04 10:54:40;;;;;;;2.50;1.87;;;;;;;6.25;52.47;96221.41;5037009;28;20231;-71
2022/04/04 10:57:16;;;;;;;1.63;1.50;;;;;;;6.98;51.22;96208.63;5035995;28;20226;-70
2022/04/04 10:59:45;;;;;;;3.33;0.90;;;;;;;6.95;50.49;96203.72;5036328;28;20224;-71
2022/04/04 11:02:14;;;;;;;3.07;1.90;;;;;;;7.54;51.02;96204.47;5036150;28;20212;-70
2022/04/04 11:07:38;;;;;;;4.63;2.50;;;;;;;7.07;49.64;96191.19;5036280;28;20675;-71
2022/04/04 11:07:38;;;;;;;2.47;1.30;;;;;;;7.44;49.37;96193.28;5036082;28;20205;-71
2022/04/04 11:10:06;;;;;;;3.67;1.83;;;;;;;7.38;49.01;96183.44;5035867;28;20197;-71
2022/04/04 11:12:55;;;;;;;4.83;1.90;;;;;;;7.41;49.42;96193.59;5036211;28;20262;-71
2022/04/04 11:15:43;;;;;;;4.30;2.17;;;;;;;6.61;49.74;96198.63;5036364;28;22264;-71
2022/04/04 11:18:10;;;;;;;2.67;1.37;;;;;;;6.61;52.18;96185.53;5036108;28;20208;-71
2022/04/04 11:20:46;;;;;;;5.30;2.43;;;;;;;7.12;51.98;96178.44;5036176;28;20248;-71
2022/04/04 11:23:14;;;;;;;2.23;1.90;;;;;;;7.11;50.43;96179.41;5036320;28;20259;-71
2022/04/04 11:25:49;;;;;;;3.70;2.30;;;;;;;7.79;49.36;96176.47;5035806;28;20648;-71
2022/04/04 11:28:20;;;;;;;3.43;1.17;;;;;;;7.39;50.45;96169.34;5035902;28;20215;-71
2022/04/04 11:30:47;;;;;;;1.93;1.73;;;;;;;7.01;51.15;96173.47;5037085;28;20213;-71
2022/04/04 11:33:22;;;;;;;2.90;1.87;;;;;;;7.28;49.93;96159.16;5033739;28;20204;-71
2022/04/04 11:35:50;;;;;;;4.47;2.70;;;;;;;7.14;49.15;96169.44;5035473;28;20224;-71
2022/04/04 11:38:19;;;;;;;10.70;2.90;;;;;;;7.36;50.46;96151.31;5035610;28;20308;-71
2022/04/04 11:40:52;;;;;;;4.40;1.83;;;;;;;6.95;51.52;96140.88;5035398;28;21034;-71
2022/04/04 11:43:24;;;;;;;2.70;1.53;;;;;;;7.50;50.23;96140.22;5035575;28;20204;-71
2022/04/04 11:45:53;;;;;;;2.60;1.73;;;;;;;7.29;49.65;96142.47;5036790;28;20811;-71